SPKAZ EPZP-EPZP
Flight info
| Callsign | SPKAZ |
|---|---|
| Flight time | N/A |
| Altitude | 2000 |
| Route | EPZP DCT EPLU DCT EPZP |
| Aircraft | P208/L-SY/C |
Departure
| Time | 2026-04-17 16:22 |
|---|---|
| Airport | Zielona Góra-Przylep Airfield (EPZP) |
Arrival
| Time | N/A |
|---|---|
| Airport | Zielona Góra-Przylep Airfield (EPZP) |
| Time | Latitude | Longitude | Altitude | Speed | Heading |
|---|---|---|---|---|---|
| 2026-04-17 16:12 | 51.97534 | 15.46446 | 255 ft | 0 kts | 284° |
| 2026-04-17 16:17 | 51.97541 | 15.46415 | 260 ft | 12 kts | 289° |
| 2026-04-17 16:17 | 51.97597 | 15.46261 | 258 ft | 19 kts | 311° |
| 2026-04-17 16:17 | 51.97698 | 15.46148 | 249 ft | 13 kts | 357° |
| 2026-04-17 16:18 | 51.97740 | 15.46185 | 249 ft | 8 kts | 47° |
| 2026-04-17 16:18 | 51.97799 | 15.46309 | 251 ft | 28 kts | 55° |
| 2026-04-17 16:18 | 51.97944 | 15.46710 | 247 ft | 52 kts | 60° |
| 2026-04-17 16:18 | 51.98064 | 15.46972 | 249 ft | 10 kts | 339° |
| 2026-04-17 16:19 | 51.98075 | 15.46957 | 249 ft | 3 kts | 296° |
| 2026-04-17 16:19 | 51.98080 | 15.46885 | 249 ft | 0 kts | 238° |
| 2026-04-17 16:20 | 51.98080 | 15.46886 | 249 ft | 0 kts | 238° |
| 2026-04-17 16:20 | 51.98078 | 15.46882 | 249 ft | 6 kts | 242° |
| 2026-04-17 16:20 | 51.98001 | 15.46562 | 244 ft | 54 kts | 255° |
| 2026-04-17 16:21 | 51.97811 | 15.45863 | 305 ft | 77 kts | 244° |
| 2026-04-17 16:21 | 51.97577 | 15.45134 | 513 ft | 74 kts | 242° |
| 2026-04-17 16:21 | 51.97257 | 15.44426 | 662 ft | 81 kts | 236° |
| 2026-04-17 16:21 | 51.97361 | 15.43598 | 727 ft | 84 kts | 328° |
| 2026-04-17 16:22 | 51.97893 | 15.43005 | 751 ft | 92 kts | 345° |
| 2026-04-17 16:22 | 51.98384 | 15.43402 | 885 ft | 92 kts | 61° |
| 2026-04-17 16:22 | 51.98603 | 15.44463 | 860 ft | 104 kts | 70° |
| 2026-04-17 16:22 | 51.98842 | 15.45588 | 781 ft | 109 kts | 69° |
| 2026-04-17 16:23 | 51.99032 | 15.46754 | 786 ft | 107 kts | 76° |
| 2026-04-17 16:23 | 51.99249 | 15.47932 | 664 ft | 112 kts | 64° |
| 2026-04-17 16:23 | 51.99154 | 15.48882 | 889 ft | 86 kts | 148° |
| 2026-04-17 16:23 | 51.98625 | 15.48771 | 891 ft | 82 kts | 243° |
| 2026-04-17 16:24 | 51.98341 | 15.47792 | 485 ft | 101 kts | 253° |
| 2026-04-17 16:24 | 51.98182 | 15.47170 | 370 ft | 75 kts | 253° |
| 2026-04-17 16:24 | 51.97975 | 15.46504 | 245 ft | 54 kts | 249° |
| 2026-04-17 16:24 | 51.97880 | 15.46012 | 248 ft | 52 kts | 254° |
| 2026-04-17 16:25 | 51.97755 | 15.45352 | 370 ft | 65 kts | 246° |
| 2026-04-17 16:25 | 51.97817 | 15.44693 | 514 ft | 62 kts | 333° |
| 2026-04-17 16:25 | 51.98175 | 15.44987 | 647 ft | 78 kts | 51° |
| 2026-04-17 16:25 | 51.98570 | 15.45650 | 742 ft | 88 kts | 44° |
| 2026-04-17 16:26 | 51.99008 | 15.46379 | 833 ft | 95 kts | 45° |
| 2026-04-17 16:26 | 51.99445 | 15.47092 | 1096 ft | 82 kts | 43° |
| 2026-04-17 16:26 | 51.99573 | 15.47975 | 1212 ft | 91 kts | 105° |
| 2026-04-17 16:26 | 51.99198 | 15.48839 | 1279 ft | 95 kts | 126° |
| 2026-04-17 16:27 | 51.98825 | 15.49697 | 1445 ft | 92 kts | 122° |
| 2026-04-17 16:27 | 51.98468 | 15.50561 | 1625 ft | 92 kts | 121° |
| 2026-04-17 16:27 | 51.98104 | 15.51418 | 1782 ft | 94 kts | 129° |
| 2026-04-17 16:27 | 51.97552 | 15.52045 | 1934 ft | 97 kts | 143° |
| 2026-04-17 16:28 | 51.96969 | 15.52716 | 1996 ft | 108 kts | 141° |
| 2026-04-17 16:28 | 51.96331 | 15.53444 | 1998 ft | 115 kts | 141° |
| 2026-04-17 16:28 | 51.95659 | 15.54192 | 1998 ft | 118 kts | 142° |
| 2026-04-17 16:28 | 51.94986 | 15.54939 | 1995 ft | 116 kts | 142° |
| 2026-04-17 16:29 | 51.94365 | 15.55746 | 1988 ft | 112 kts | 122° |
| 2026-04-17 16:29 | 51.93972 | 15.56830 | 1993 ft | 112 kts | 118° |
| 2026-04-17 16:29 | 51.93532 | 15.57866 | 1993 ft | 112 kts | 121° |
| 2026-04-17 16:29 | 51.93105 | 15.58895 | 1991 ft | 109 kts | 118° |
| 2026-04-17 16:30 | 51.92678 | 15.59894 | 1986 ft | 107 kts | 120° |
| 2026-04-17 16:30 | 51.92261 | 15.60910 | 1979 ft | 109 kts | 118° |
| 2026-04-17 16:30 | 51.91985 | 15.62008 | 1975 ft | 104 kts | 86° |
| 2026-04-17 16:30 | 51.91931 | 15.63177 | 1979 ft | 105 kts | 91° |
| 2026-04-17 16:31 | 51.91850 | 15.64350 | 1982 ft | 105 kts | 92° |
| 2026-04-17 16:31 | 51.91789 | 15.65533 | 1980 ft | 106 kts | 90° |
| 2026-04-17 16:31 | 51.91719 | 15.66717 | 1976 ft | 105 kts | 91° |
| 2026-04-17 16:31 | 51.91671 | 15.67891 | 1980 ft | 106 kts | 88° |
| 2026-04-17 16:32 | 51.91607 | 15.69082 | 1983 ft | 106 kts | 91° |
| 2026-04-17 16:32 | 51.91373 | 15.70182 | 1973 ft | 109 kts | 129° |
| 2026-04-17 16:32 | 51.90637 | 15.70488 | 1980 ft | 115 kts | 185° |
| 2026-04-17 16:32 | 51.89823 | 15.70408 | 1992 ft | 119 kts | 181° |
| 2026-04-17 16:33 | 51.89032 | 15.70634 | 1980 ft | 116 kts | 149° |
| 2026-04-17 16:33 | 51.88345 | 15.71268 | 1975 ft | 113 kts | 148° |
| 2026-04-17 16:33 | 51.87657 | 15.71864 | 1978 ft | 113 kts | 148° |
| 2026-04-17 16:33 | 51.86973 | 15.72472 | 1980 ft | 112 kts | 147° |
| 2026-04-17 16:34 | 51.86292 | 15.73089 | 1980 ft | 113 kts | 146° |
| 2026-04-17 16:34 | 51.85599 | 15.73699 | 1985 ft | 115 kts | 147° |
| 2026-04-17 16:34 | 51.84897 | 15.74331 | 1987 ft | 115 kts | 147° |
| 2026-04-17 16:34 | 51.84187 | 15.74955 | 1987 ft | 117 kts | 148° |
| 2026-04-17 16:35 | 51.83490 | 15.75594 | 1985 ft | 115 kts | 147° |
| 2026-04-17 16:35 | 51.82790 | 15.76230 | 1989 ft | 116 kts | 147° |
| 2026-04-17 16:35 | 51.82078 | 15.76864 | 1982 ft | 117 kts | 148° |
| 2026-04-17 16:35 | 51.81369 | 15.77470 | 1975 ft | 115 kts | 149° |
| 2026-04-17 16:36 | 51.80676 | 15.78071 | 1980 ft | 112 kts | 148° |
| 2026-04-17 16:36 | 51.79997 | 15.78678 | 1974 ft | 111 kts | 148° |
| 2026-04-17 16:36 | 51.79315 | 15.79278 | 1980 ft | 113 kts | 147° |
| 2026-04-17 16:36 | 51.78614 | 15.79871 | 1976 ft | 114 kts | 147° |
| 2026-04-17 16:37 | 51.77908 | 15.80479 | 1977 ft | 116 kts | 147° |
| 2026-04-17 16:37 | 51.77207 | 15.81093 | 1980 ft | 114 kts | 147° |
| 2026-04-17 16:37 | 51.76505 | 15.81707 | 1976 ft | 114 kts | 148° |
| 2026-04-17 16:37 | 51.75820 | 15.82330 | 1974 ft | 113 kts | 145° |
| 2026-04-17 16:38 | 51.75132 | 15.82933 | 1977 ft | 116 kts | 146° |
| 2026-04-17 16:38 | 51.74411 | 15.83558 | 1979 ft | 116 kts | 147° |
| 2026-04-17 16:38 | 51.73717 | 15.84188 | 1976 ft | 113 kts | 147° |
| 2026-04-17 16:38 | 51.73028 | 15.84804 | 1980 ft | 114 kts | 146° |
| 2026-04-17 16:39 | 51.72329 | 15.85422 | 1983 ft | 115 kts | 147° |
| 2026-04-17 16:39 | 51.71634 | 15.86049 | 1983 ft | 117 kts | 146° |
| 2026-04-17 16:39 | 51.70916 | 15.86667 | 1983 ft | 117 kts | 147° |
| 2026-04-17 16:39 | 51.70209 | 15.87288 | 1980 ft | 114 kts | 147° |
| 2026-04-17 16:40 | 51.69522 | 15.87925 | 1980 ft | 114 kts | 145° |
| 2026-04-17 16:40 | 51.68832 | 15.88543 | 1979 ft | 113 kts | 146° |
| 2026-04-17 16:40 | 51.68143 | 15.89158 | 1974 ft | 114 kts | 147° |
| 2026-04-17 16:40 | 51.67460 | 15.89794 | 1973 ft | 113 kts | 144° |
| 2026-04-17 16:41 | 51.66802 | 15.90480 | 1978 ft | 113 kts | 143° |
| 2026-04-17 16:41 | 51.66147 | 15.91194 | 1987 ft | 115 kts | 143° |
| 2026-04-17 16:41 | 51.65471 | 15.91903 | 1992 ft | 117 kts | 142° |
| 2026-04-17 16:41 | 51.64777 | 15.92596 | 1990 ft | 118 kts | 143° |
| 2026-04-17 16:42 | 51.64089 | 15.93292 | 1990 ft | 115 kts | 143° |
| 2026-04-17 16:42 | 51.63420 | 15.93989 | 1989 ft | 114 kts | 143° |
| 2026-04-17 16:42 | 51.62750 | 15.94683 | 1988 ft | 115 kts | 143° |
| 2026-04-17 16:42 | 51.62070 | 15.95373 | 1990 ft | 115 kts | 142° |
| 2026-04-17 16:43 | 51.61384 | 15.96066 | 1989 ft | 117 kts | 143° |
| 2026-04-17 16:43 | 51.60695 | 15.96758 | 1990 ft | 115 kts | 143° |
| 2026-04-17 16:43 | 51.60020 | 15.97460 | 1987 ft | 116 kts | 142° |
| 2026-04-17 16:43 | 51.59329 | 15.98143 | 1988 ft | 116 kts | 143° |
| 2026-04-17 16:44 | 51.58649 | 15.98831 | 1989 ft | 115 kts | 143° |
| 2026-04-17 16:44 | 51.57970 | 15.99507 | 1982 ft | 114 kts | 144° |
| 2026-04-17 16:44 | 51.57332 | 16.00213 | 1976 ft | 109 kts | 135° |
| 2026-04-17 16:44 | 51.56748 | 16.01014 | 1980 ft | 112 kts | 134° |
| 2026-04-17 16:45 | 51.56141 | 16.01831 | 1981 ft | 115 kts | 136° |
| 2026-04-17 16:45 | 51.55532 | 16.02662 | 1984 ft | 115 kts | 135° |
| 2026-04-17 16:45 | 51.54933 | 16.03505 | 1987 ft | 114 kts | 134° |
| 2026-04-17 16:45 | 51.54342 | 16.04351 | 1986 ft | 114 kts | 133° |
| 2026-04-17 16:46 | 51.53740 | 16.05183 | 1986 ft | 115 kts | 133° |
| 2026-04-17 16:46 | 51.53463 | 16.05567 | 1988 ft | 115 kts | 135° |
| 2026-04-17 16:46 | 51.52946 | 16.06310 | 1985 ft | 116 kts | 133° |
| 2026-04-17 16:46 | 51.52347 | 16.07184 | 1988 ft | 116 kts | 132° |
| 2026-04-17 16:47 | 51.51728 | 16.08016 | 1985 ft | 115 kts | 134° |
| 2026-04-17 16:47 | 51.51114 | 16.08832 | 1985 ft | 114 kts | 135° |
| 2026-04-17 16:47 | 51.50505 | 16.09650 | 1986 ft | 114 kts | 135° |
| 2026-04-17 16:47 | 51.49912 | 16.10466 | 1986 ft | 115 kts | 133° |
| 2026-04-17 16:48 | 51.49295 | 16.11291 | 1987 ft | 115 kts | 135° |
| 2026-04-17 16:48 | 51.48695 | 16.12115 | 1987 ft | 113 kts | 132° |
| 2026-04-17 16:48 | 51.48093 | 16.12933 | 1983 ft | 113 kts | 134° |
| 2026-04-17 16:48 | 51.47499 | 16.13768 | 1982 ft | 111 kts | 131° |
| 2026-04-17 16:49 | 51.46944 | 16.14621 | 1963 ft | 110 kts | 130° |
| 2026-04-17 16:49 | 51.46381 | 16.15467 | 1862 ft | 111 kts | 131° |
| 2026-04-17 16:49 | 51.45831 | 16.16320 | 1737 ft | 110 kts | 130° |
| 2026-04-17 16:49 | 51.45273 | 16.17164 | 1609 ft | 111 kts | 133° |
| 2026-04-17 16:50 | 51.44692 | 16.17987 | 1482 ft | 109 kts | 129° |
| 2026-04-17 16:50 | 51.44389 | 16.18416 | 1479 ft | 106 kts | 134° |
| 2026-04-17 16:50 | 51.43716 | 16.19371 | 1379 ft | 106 kts | 126° |
| 2026-04-17 16:50 | 51.43170 | 16.20195 | 1158 ft | 108 kts | 136° |
| 2026-04-17 16:51 | 51.42622 | 16.21040 | 976 ft | 106 kts | 125° |
| 2026-04-17 16:51 | 51.42270 | 16.21817 | 976 ft | 101 kts | 120° |
| 2026-04-17 16:51 | 51.41692 | 16.22386 | 842 ft | 98 kts | 195° |
| 2026-04-17 16:51 | 51.41419 | 16.21579 | 746 ft | 97 kts | 264° |
| 2026-04-17 16:52 | 51.41586 | 16.20732 | 682 ft | 75 kts | 328° |
| 2026-04-17 16:52 | 51.41962 | 16.20221 | 576 ft | 70 kts | 318° |
| 2026-04-17 16:52 | 51.42256 | 16.19687 | 523 ft | 55 kts | 318° |
| 2026-04-17 16:52 | 51.42493 | 16.19274 | 514 ft | 55 kts | 312° |
| 2026-04-17 16:53 | 51.42734 | 16.18748 | 688 ft | 56 kts | 315° |
| 2026-04-17 16:53 | 51.43068 | 16.18641 | 805 ft | 67 kts | 39° |
| 2026-04-17 16:53 | 51.43180 | 16.19361 | 874 ft | 76 kts | 95° |
| 2026-04-17 16:53 | 51.42830 | 16.20135 | 839 ft | 87 kts | 111° |
| 2026-04-17 16:54 | 51.42466 | 16.21018 | 765 ft | 100 kts | 123° |
| 2026-04-17 16:54 | 51.41926 | 16.21402 | 987 ft | 92 kts | 213° |
| 2026-04-17 16:54 | 51.41762 | 16.20532 | 713 ft | 85 kts | 307° |
| 2026-04-17 16:54 | 51.42105 | 16.19977 | 525 ft | 56 kts | 311° |
| 2026-04-17 16:55 | 51.42309 | 16.19618 | 517 ft | 43 kts | 307° |
| 2026-04-17 16:55 | 51.42544 | 16.19149 | 599 ft | 57 kts | 328° |